Time;durP1;ratioP1;P1;durP2;ratioP2;P2;SDS_P1;SDS_P2;PMS_P1;PMS_P2;Temp;Humidity;BMP_temperature;BMP_pressure;BME280_temperature;BME280_humidity;BME280_pressure;Samples;Min_cycle;Max_cycle;Signal;HPM_P1;HPM_P2
2021/08/22 00:01:14;;;;;;;11.07;8.07;;;20.80;99.90;;;;;;5052771;28;20483;-61
2021/08/22 00:03:41;;;;;;;11.93;7.87;;;20.80;99.90;;;;;;5053487;28;20938;-60
2021/08/22 00:06:10;;;;;;;9.60;8.60;;;20.80;99.90;;;;;;5053474;28;20449;-60
2021/08/22 00:08:38;;;;;;;10.53;8.03;;;20.80;99.90;;;;;;5052956;28;20490;-60
2021/08/22 00:11:05;;;;;;;11.70;8.03;;;20.80;99.90;;;;;;5052672;28;20483;-61
2021/08/22 00:13:32;;;;;;;11.27;8.90;;;20.70;99.90;;;;;;5052725;28;20542;-60
2021/08/22 00:15:59;;;;;;;10.93;8.50;;;20.70;99.90;;;;;;5052186;28;20459;-60
2021/08/22 00:18:26;;;;;;;10.50;9.00;;;20.60;99.90;;;;;;5052849;28;20452;-60
2021/08/22 00:20:54;;;;;;;10.07;8.87;;;20.60;99.90;;;;;;5053207;28;20879;-60
2021/08/22 00:23:22;;;;;;;9.20;8.10;;;20.60;99.90;;;;;;5052614;28;20455;-60
2021/08/22 00:25:49;;;;;;;9.20;7.87;;;20.50;99.90;;;;;;5052369;28;20876;-60
2021/08/22 00:28:17;;;;;;;8.73;7.80;;;20.60;99.90;;;;;;5052591;28;20483;-60
2021/08/22 00:30:44;;;;;;;9.80;8.13;;;20.70;99.90;;;;;;5052934;28;20543;-60
2021/08/22 00:33:11;;;;;;;11.07;8.23;;;20.50;99.90;;;;;;5052743;28;20890;-60
2021/08/22 00:35:38;;;;;;;11.93;8.70;;;20.50;99.90;;;;;;5052386;28;20456;-60
2021/08/22 00:38:05;;;;;;;8.80;7.90;;;20.40;99.90;;;;;;5052413;28;20460;-60
2021/08/22 00:40:34;;;;;;;10.23;8.83;;;20.40;99.90;;;;;;5052302;28;20810;-60
2021/08/22 00:43:02;;;;;;;11.27;8.60;;;20.50;99.90;;;;;;5051993;28;21000;-60
2021/08/22 00:45:29;;;;;;;10.60;8.27;;;20.60;99.90;;;;;;5051812;28;20876;-60
2021/08/22 00:47:57;;;;;;;10.13;8.70;;;20.80;99.90;;;;;;5052049;28;20573;-60
2021/08/22 00:50:24;;;;;;;11.50;8.63;;;20.60;99.90;;;;;;5052776;28;20452;-60
2021/08/22 00:52:53;;;;;;;9.17;7.90;;;20.60;99.90;;;;;;5052305;28;20463;-60
2021/08/22 00:55:20;;;;;;;9.53;8.10;;;20.60;99.90;;;;;;5051408;28;20551;-60
2021/08/22 00:57:50;;;;;;;10.03;8.60;;;20.60;99.90;;;;;;5052663;28;20439;-60
2021/08/22 01:00:18;;;;;;;10.07;7.97;;;20.60;99.90;;;;;;5051823;28;21007;-60
2021/08/22 01:02:55;;;;;;;10.13;7.90;;;20.70;99.90;;;;;;5051753;28;20476;-60
2021/08/22 01:05:33;;;;;;;9.80;8.10;;;20.70;99.90;;;;;;5051943;28;20509;-60
2021/08/22 01:08:09;;;;;;;9.17;8.17;;;20.60;99.90;;;;;;5051894;28;21070;-60
2021/08/22 01:10:39;;;;;;;9.90;7.67;;;20.50;99.90;;;;;;5051390;28;20863;-60
2021/08/22 01:13:11;;;;;;;8.57;7.27;;;20.60;99.90;;;;;;5051972;28;20472;-60
2021/08/22 01:15:41;;;;;;;10.70;8.00;;;20.70;99.90;;;;;;5051462;28;20452;-61
2021/08/22 01:18:12;;;;;;;9.60;7.70;;;20.80;99.90;;;;;;5051978;28;20443;-60
2021/08/22 01:20:45;;;;;;;10.77;8.97;;;20.80;99.90;;;;;;5051544;28;20999;-60
2021/08/22 01:23:14;;;;;;;12.87;8.70;;;20.70;99.90;;;;;;5051518;28;20475;-60
2021/08/22 02:09:37;;;;;;;8.03;3.70;;;18.20;99.90;;;;;;5041898;28;20925;-60
2021/08/22 02:12:11;;;;;;;5.70;3.60;;;18.20;99.90;;;;;;5031278;28;20468;-60
2021/08/22 02:14:43;;;;;;;5.90;4.00;;;18.20;99.90;;;;;;5046919;28;20868;-60
2021/08/22 02:17:11;;;;;;;4.60;3.73;;;18.20;99.90;;;;;;5051409;28;20447;-60
2021/08/22 02:19:40;;;;;;;9.23;4.97;;;18.20;99.90;;;;;;5050970;28;20444;-60
2021/08/22 02:22:08;;;;;;;5.10;3.97;;;18.30;99.90;;;;;;5051267;28;20468;-59
2021/08/22 02:24:37;;;;;;;4.20;3.57;;;18.10;99.90;;;;;;5050857;28;21015;-60
2021/08/22 02:27:05;;;;;;;6.17;3.70;;;17.90;99.90;;;;;;5050915;28;21023;-60
2021/08/22 02:29:32;;;;;;;5.40;3.87;;;18.00;99.90;;;;;;5051027;28;20483;-60
2021/08/22 02:31:59;;;;;;;6.30;3.57;;;17.90;99.90;;;;;;5050638;28;20467;-60
2021/08/22 02:34:26;;;;;;;4.43;3.80;;;17.80;99.90;;;;;;5050620;28;20945;-60
2021/08/22 02:36:53;;;;;;;4.27;3.70;;;17.90;99.90;;;;;;5051109;28;20861;-60
2021/08/22 02:42:43;;;;;;;3.80;3.40;;;18.00;99.90;;;;;;5049147;28;20458;-60
2021/08/22 02:45:11;;;;;;;4.50;3.37;;;17.90;99.90;;;;;;5050814;28;20451;-60
2021/08/22 02:47:38;;;;;;;7.07;4.37;;;17.70;99.90;;;;;;5050566;28;21194;-59
2021/08/22 02:50:05;;;;;;;8.57;4.27;;;17.50;99.90;;;;;;5045351;28;20471;-60
2021/08/22 02:52:33;;;;;;;5.03;4.00;;;17.50;99.90;;;;;;5039306;28;20469;-60
2021/08/22 02:55:00;;;;;;;4.73;3.90;;;17.60;99.90;;;;;;5037924;28;20514;-59
2021/08/22 02:57:30;;;;;;;5.47;4.47;;;17.60;99.90;;;;;;5044818;28;20513;-60
2021/08/22 02:59:58;;;;;;;4.63;3.60;;;17.70;99.90;;;;;;5041234;28;21016;-60
2021/08/22 03:02:26;;;;;;;5.30;4.00;;;17.80;99.90;;;;;;5030022;28;20542;-59
2021/08/22 03:04:54;;;;;;;6.70;4.57;;;17.70;99.90;;;;;;5043883;28;20454;-60
2021/08/22 03:07:24;;;;;;;5.43;3.90;;;17.70;99.90;;;;;;5049309;28;20444;-60
2021/08/22 03:09:51;;;;;;;4.63;3.77;;;17.60;99.90;;;;;;5037540;28;20484;-60
2021/08/22 03:12:18;;;;;;;5.13;3.60;;;17.60;99.90;;;;;;5048654;28;20514;-59
2021/08/22 03:14:45;;;;;;;5.90;4.30;;;17.70;99.90;;;;;;5048766;28;20444;-60
2021/08/22 03:17:13;;;;;;;4.07;3.67;;;17.80;99.90;;;;;;5040615;28;20874;-60
2021/08/22 03:19:41;;;;;;;3.83;3.40;;;18.00;99.90;;;;;;5041228;28;20448;-60
2021/08/22 03:22:08;;;;;;;5.00;3.20;;;18.10;99.90;;;;;;5033286;28;20996;-60
2021/08/22 03:24:35;;;;;;;8.10;4.00;;;18.10;99.90;;;;;;5048875;28;20444;-60
2021/08/22 03:27:02;;;;;;;3.90;3.40;;;18.10;99.90;;;;;;5052390;28;20938;-60
2021/08/22 03:29:29;;;;;;;5.10;3.37;;;18.10;99.90;;;;;;5048245;28;20499;-59
2021/08/22 03:31:56;;;;;;;4.63;3.57;;;18.10;99.90;;;;;;5039075;28;20469;-59
2021/08/22 03:34:24;;;;;;;5.13;3.50;;;17.90;99.90;;;;;;5045445;28;20452;-59
2021/08/22 03:36:51;;;;;;;6.00;3.67;;;17.70;99.90;;;;;;5043440;28;20478;-59
2021/08/22 03:39:18;;;;;;;4.90;3.90;;;17.70;99.90;;;;;;5049855;28;20452;-60
2021/08/22 03:41:45;;;;;;;3.97;3.47;;;17.80;99.90;;;;;;5042010;28;20472;-59
2021/08/22 03:44:12;;;;;;;5.57;3.77;;;18.00;99.90;;;;;;5048656;28;20930;-60
2021/08/22 03:46:39;;;;;;;3.90;3.50;;;17.90;99.90;;;;;;5048111;28;20447;-59
2021/08/22 03:49:06;;;;;;;4.83;3.73;;;17.90;99.90;;;;;;5051797;28;20479;-60
2021/08/22 03:51:34;;;;;;;4.20;3.30;;;18.10;99.90;;;;;;5039814;28;20468;-59
2021/08/22 03:54:01;;;;;;;5.50;4.00;;;18.00;99.90;;;;;;5038954;28;20456;-59
2021/08/22 03:56:28;;;;;;;4.50;3.70;;;18.10;99.90;;;;;;5046643;28;20461;-60
2021/08/22 03:58:55;;;;;;;3.77;3.47;;;18.10;99.90;;;;;;5043309;28;21495;-59
2021/08/22 04:01:23;;;;;;;3.50;3.20;;;18.20;99.90;;;;;;5050963;28;20565;-59
2021/08/22 04:03:50;;;;;;;4.60;3.80;;;18.20;99.90;;;;;;5050625;28;20501;-59
2021/08/22 04:06:17;;;;;;;5.27;4.07;;;18.30;99.90;;;;;;5034868;28;20503;-59
2021/08/22 04:08:46;;;;;;;6.13;3.83;;;18.20;99.90;;;;;;5036600;28;20479;-59
2021/08/22 04:11:13;;;;;;;4.20;3.80;;;18.20;99.90;;;;;;5051437;28;20541;-59
2021/08/22 04:13:40;;;;;;;5.60;3.90;;;18.20;99.90;;;;;;5050845;28;20446;-59
2021/08/22 04:16:07;;;;;;;4.77;3.63;;;18.20;99.90;;;;;;5049759;28;20455;-59
2021/08/22 04:18:34;;;;;;;5.23;4.00;;;18.30;99.90;;;;;;5035448;28;20456;-60
2021/08/22 04:21:01;;;;;;;5.03;4.07;;;18.30;99.90;;;;;;5039234;28;20804;-59
2021/08/22 04:23:29;;;;;;;5.30;4.00;;;18.30;99.90;;;;;;5048765;28;20950;-59
2021/08/22 04:25:57;;;;;;;6.00;4.07;;;18.20;99.90;;;;;;5049108;28;20501;-59
2021/08/22 04:28:24;;;;;;;4.90;4.20;;;18.30;99.90;;;;;;5050331;28;20452;-59
2021/08/22 04:30:51;;;;;;;5.20;4.60;;;18.30;99.90;;;;;;5039905;28;20460;-59
2021/08/22 04:33:18;;;;;;;4.47;3.83;;;18.30;99.90;;;;;;5032262;28;20494;-59
2021/08/22 04:35:45;;;;;;;4.60;3.97;;;18.20;99.90;;;;;;5044590;28;20444;-59
2021/08/22 04:38:12;;;;;;;7.10;3.90;;;18.10;99.90;;;;;;5051445;28;20941;-59
2021/08/22 04:40:39;;;;;;;5.63;4.40;;;18.00;99.90;;;;;;5034811;28;20456;-59
2021/08/22 04:43:07;;;;;;;4.50;4.10;;;18.00;99.90;;;;;;5040148;28;20521;-59
2021/08/22 04:45:34;;;;;;;4.17;3.70;;;17.90;99.90;;;;;;5050380;28;20447;-59
2021/08/22 04:48:01;;;;;;;5.23;3.73;;;17.90;99.90;;;;;;5050850;28;20490;-59
2021/08/22 04:50:28;;;;;;;4.40;4.00;;;17.80;99.90;;;;;;5041070;28;20484;-60
2021/08/22 04:52:55;;;;;;;5.57;4.50;;;17.90;99.90;;;;;;5044029;28;20840;-59
2021/08/22 04:55:23;;;;;;;8.90;4.80;;;18.00;99.90;;;;;;5039941;28;20452;-59
2021/08/22 04:57:49;;;;;;;4.90;4.10;;;17.90;99.90;;;;;;5039317;28;20455;-59
2021/08/22 05:00:19;;;;;;;6.07;4.57;;;17.90;99.90;;;;;;5046026;28;20502;-59
2021/08/22 05:02:46;;;;;;;4.10;3.40;;;17.90;99.90;;;;;;5032360;28;20531;-59
2021/08/22 05:05:13;;;;;;;6.90;5.10;;;17.70;99.90;;;;;;5034199;28;20449;-59
2021/08/22 05:07:40;;;;;;;4.60;4.17;;;17.70;99.90;;;;;;5034309;28;20449;-59
2021/08/22 05:10:08;;;;;;;4.40;3.90;;;17.80;99.90;;;;;;5049451;28;20475;-60
2021/08/22 05:12:35;;;;;;;6.70;4.33;;;17.80;99.90;;;;;;5049708;28;20977;-60
2021/08/22 05:15:02;;;;;;;5.30;4.43;;;17.90;99.90;;;;;;5035477;28;20453;-59
2021/08/22 05:17:30;;;;;;;5.30;4.50;;;18.00;99.90;;;;;;5046261;28;20511;-59
2021/08/22 05:19:57;;;;;;;6.67;4.97;;;18.00;99.90;;;;;;5045831;28;21285;-60
2021/08/22 05:22:24;;;;;;;5.83;4.70;;;18.10;99.90;;;;;;5040697;28;20517;-59
2021/08/22 05:24:51;;;;;;;6.37;4.73;;;18.10;99.90;;;;;;5046510;28;20834;-59
2021/08/22 05:27:18;;;;;;;7.77;5.10;;;18.10;99.90;;;;;;5036238;28;20514;-59
2021/08/22 05:29:45;;;;;;;6.43;4.17;;;18.00;99.90;;;;;;5032346;28;20487;-60
2021/08/22 05:32:12;;;;;;;9.73;4.60;;;18.00;99.90;;;;;;5037658;28;20468;-59
2021/08/22 05:34:40;;;;;;;6.03;4.70;;;17.90;99.90;;;;;;5041799;28;20521;-59
2021/08/22 05:37:08;;;;;;;7.00;5.37;;;17.90;99.90;;;;;;5034851;28;20490;-59
2021/08/22 05:39:35;;;;;;;5.67;4.50;;;17.80;99.90;;;;;;5034799;28;20479;-59
2021/08/22 05:42:03;;;;;;;5.90;4.50;;;17.80;99.90;;;;;;5041546;28;20480;-59
2021/08/22 05:44:31;;;;;;;7.80;4.90;;;17.80;99.90;;;;;;5041257;28;20456;-59
2021/08/22 05:46:58;;;;;;;6.40;4.77;;;17.90;99.90;;;;;;5037895;28;20503;-60
2021/08/22 05:49:25;;;;;;;4.83;4.20;;;17.90;99.90;;;;;;5047272;28;20480;-60
2021/08/22 05:51:53;;;;;;;4.43;3.70;;;17.80;99.90;;;;;;5040572;28;20469;-59
2021/08/22 05:54:20;;;;;;;4.83;4.23;;;17.80;99.90;;;;;;5039866;28;20452;-59
2021/08/22 05:56:48;;;;;;;5.47;4.30;;;17.90;99.90;;;;;;5034758;28;20501;-59
2021/08/22 05:59:15;;;;;;;5.13;4.13;;;17.90;99.90;;;;;;5046583;28;20499;-59
2021/08/22 06:01:41;;;;;;;5.13;3.97;;;17.90;99.90;;;;;;5034115;28;20484;-59
2021/08/22 06:04:09;;;;;;;7.57;4.47;;;17.90;99.90;;;;;;5034761;28;20471;-59
2021/08/22 06:06:40;;;;;;;5.50;4.80;;;17.90;99.90;;;;;;5041923;28;20460;-59
2021/08/22 06:09:09;;;;;;;6.53;3.73;;;17.80;99.90;;;;;;5043615;28;20491;-59
2021/08/22 06:11:36;;;;;;;6.83;3.57;;;17.80;99.90;;;;;;5050435;28;21173;-59
2021/08/22 06:14:03;;;;;;;5.77;3.83;;;17.90;99.90;;;;;;5048480;28;20447;-59
2021/08/22 06:16:30;;;;;;;4.67;4.17;;;17.80;99.90;;;;;;5049275;28;20493;-59
2021/08/22 06:18:58;;;;;;;6.93;3.50;;;17.70;99.90;;;;;;5049789;28;20463;-59
2021/08/22 06:21:25;;;;;;;5.93;3.90;;;17.70;99.90;;;;;;5043337;28;20526;-59
2021/08/22 06:23:53;;;;;;;4.57;3.93;;;17.80;99.90;;;;;;5034506;28;20444;-60
2021/08/22 06:26:22;;;;;;;4.03;3.63;;;17.70;99.90;;;;;;5031679;28;20977;-60
2021/08/22 06:28:50;;;;;;;5.50;4.10;;;17.80;99.90;;;;;;5041946;28;20531;-59
2021/08/22 06:31:16;;;;;;;6.50;4.13;;;17.80;99.90;;;;;;5040436;28;20538;-59
2021/08/22 06:33:43;;;;;;;13.10;10.43;;;17.80;99.90;;;;;;5031576;28;20514;-59
2021/08/22 06:36:11;;;;;;;10.03;9.00;;;17.80;99.90;;;;;;5037671;28;20452;-59
2021/08/22 06:38:38;;;;;;;6.60;4.70;;;17.90;99.90;;;;;;5040094;28;20452;-59
2021/08/22 06:41:05;;;;;;;6.90;3.70;;;18.00;99.90;;;;;;5049161;28;20447;-59
2021/08/22 06:43:33;;;;;;;3.70;3.40;;;18.10;99.90;;;;;;5034116;28;20505;-59
2021/08/22 06:46:00;;;;;;;6.23;3.77;;;18.20;99.90;;;;;;5031300;28;20510;-59
2021/08/22 06:48:27;;;;;;;5.43;4.10;;;18.20;99.90;;;;;;5036016;28;20880;-59
2021/08/22 06:50:54;;;;;;;5.00;3.90;;;18.40;99.90;;;;;;5043800;28;20479;-59
2021/08/22 06:53:21;;;;;;;5.20;3.57;;;18.60;99.90;;;;;;5063651;22;20463;-50
2021/08/22 06:55:48;;;;;;;4.47;3.90;;;18.80;99.90;;;;;;5054555;28;20874;-51
2021/08/22 06:58:15;;;;;;;4.23;3.70;;;19.10;99.90;;;;;;5054315;28;20861;-51
2021/08/22 07:00:43;;;;;;;4.67;3.47;;;19.30;99.90;;;;;;5053969;28;20451;-51
2021/08/22 07:03:10;;;;;;;4.50;3.47;;;19.50;99.90;;;;;;5041278;28;20487;-50
2021/08/22 07:05:37;;;;;;;4.33;3.70;;;19.50;99.90;;;;;;5052022;28;20511;-51
2021/08/22 07:08:05;;;;;;;4.40;4.00;;;19.70;99.90;;;;;;5049709;28;20527;-51
2021/08/22 07:10:33;;;;;;;4.43;3.90;;;19.80;99.90;;;;;;5056980;28;20486;-51
2021/08/22 07:13:00;;;;;;;4.77;3.70;;;19.70;99.90;;;;;;5052402;28;20506;-50
2021/08/22 07:15:28;;;;;;;5.10;3.30;;;19.90;99.90;;;;;;5054834;28;20476;-53
2021/08/22 07:17:58;;;;;;;4.33;3.70;;;19.90;99.90;;;;;;5047098;28;20470;-52
2021/08/22 07:20:25;;;;;;;4.00;3.50;;;20.10;99.90;;;;;;5047302;28;20455;-52
2021/08/22 07:22:52;;;;;;;4.03;3.63;;;20.00;99.90;;;;;;5051239;28;20949;-52
2021/08/22 07:25:21;;;;;;;4.30;3.90;;;19.90;99.90;;;;;;5053977;28;20533;-53
2021/08/22 07:27:48;;;;;;;6.87;3.90;;;19.90;99.90;;;;;;5054036;28;20448;-53
2021/08/22 07:30:15;;;;;;;4.90;4.00;;;19.90;99.90;;;;;;5051947;28;20537;-54
2021/08/22 07:32:42;;;;;;;4.30;3.83;;;19.90;99.90;;;;;;5051031;28;20448;-53
2021/08/22 07:35:11;;;;;;;4.87;3.80;;;19.90;99.90;;;;;;5053424;28;20468;-53
2021/08/22 07:37:38;;;;;;;4.50;4.07;;;20.00;99.90;;;;;;5053888;28;20474;-52
2021/08/22 07:40:07;;;;;;;5.70;3.83;;;20.00;99.90;;;;;;5051788;28;20448;-52
2021/08/22 07:42:34;;;;;;;4.50;3.70;;;20.30;99.90;;;;;;5053441;28;20452;-52
2021/08/22 07:45:01;;;;;;;3.83;3.43;;;20.30;99.90;;;;;;5053127;28;20888;-53
2021/08/22 07:47:31;;;;;;;4.83;4.10;;;20.40;99.90;;;;;;5068070;28;20493;-52
2021/08/22 07:49:58;;;;;;;4.73;4.00;;;20.50;99.90;;;;;;5056503;28;20482;-53
2021/08/22 07:52:30;;;;;;;5.00;4.37;;;20.50;99.90;;;;;;5052782;28;20502;-54
2021/08/22 07:54:57;;;;;;;5.03;3.90;;;20.80;99.90;;;;;;5048666;28;20528;-53
2021/08/22 07:57:27;;;;;;;4.30;3.83;;;21.10;99.90;;;;;;5051349;28;20452;-56
2021/08/22 07:59:54;;;;;;;5.00;3.90;;;21.50;99.90;;;;;;5058633;28;21100;-53
2021/08/22 08:02:22;;;;;;;4.13;3.73;;;21.50;99.90;;;;;;5051576;28;20505;-53
2021/08/22 08:04:51;;;;;;;4.10;3.60;;;21.50;99.90;;;;;;5052428;28;20521;-52
2021/08/22 08:07:18;;;;;;;4.73;3.30;;;21.50;99.90;;;;;;5052541;28;20535;-54
2021/08/22 08:09:46;;;;;;;4.20;3.80;;;21.40;99.90;;;;;;5056362;28;20478;-53
2021/08/22 08:12:13;;;;;;;4.43;3.60;;;21.30;99.90;;;;;;5059005;28;20443;-53
2021/08/22 08:14:40;;;;;;;7.50;3.77;;;21.10;99.90;;;;;;5068673;28;20463;-54
2021/08/22 08:17:08;;;;;;;3.60;3.30;;;20.90;99.90;;;;;;5060345;28;20451;-53
2021/08/22 08:19:35;;;;;;;5.27;3.93;;;20.90;99.90;;;;;;5064975;28;20467;-53
2021/08/22 08:22:02;;;;;;;6.10;3.10;;;20.70;99.90;;;;;;5057491;28;20516;-53
2021/08/22 08:24:29;;;;;;;4.13;3.43;;;20.60;99.90;;;;;;5052351;28;20993;-53
2021/08/22 08:26:57;;;;;;;4.50;3.90;;;20.40;99.90;;;;;;5051348;28;20505;-52
2021/08/22 08:29:24;;;;;;;5.20;3.50;;;20.40;99.90;;;;;;5046037;28;20463;-54
2021/08/22 08:31:51;;;;;;;4.90;3.87;;;20.60;99.90;;;;;;5050312;28;20541;-51
2021/08/22 08:34:18;;;;;;;3.30;3.00;;;20.50;99.90;;;;;;5051960;28;20548;-54
2021/08/22 08:36:45;;;;;;;3.23;3.03;;;20.60;99.90;;;;;;5055905;28;20452;-52
2021/08/22 08:39:12;;;;;;;4.90;3.33;;;20.70;99.90;;;;;;5051622;28;20456;-52
2021/08/22 08:41:39;;;;;;;4.93;4.20;;;20.80;99.90;;;;;;5051145;28;20901;-53
2021/08/22 08:44:09;;;;;;;3.50;3.20;;;20.90;99.90;;;;;;5047714;28;20473;-51
2021/08/22 08:46:37;;;;;;;4.00;3.10;;;21.10;99.90;;;;;;5040282;28;20543;-52
2021/08/22 08:49:05;;;;;;;3.97;3.57;;;21.30;99.90;;;;;;5051495;28;20463;-52
2021/08/22 08:51:41;;;;;;;3.63;3.07;;;21.40;99.90;;;;;;5051444;28;20479;-52
2021/08/22 08:54:09;;;;;;;4.30;3.83;;;21.30;99.90;;;;;;5049543;28;20483;-52
2021/08/22 08:56:37;;;;;;;3.63;3.33;;;21.50;99.90;;;;;;5046775;28;20875;-52
2021/08/22 08:59:04;;;;;;;4.60;4.10;;;21.70;99.90;;;;;;5050889;28;20435;-53
2021/08/22 09:01:32;;;;;;;4.60;3.78;;;21.60;99.90;;;;;;5053573;28;20454;-55
2021/08/22 09:04:11;;;;;;;3.30;3.00;;;21.60;99.90;;;;;;5051574;28;20292;-56
2021/08/22 09:07:23;;;;;;;4.87;3.40;;;21.90;99.90;;;;;;5045629;28;20456;-54
2021/08/22 09:10:32;;;;;;;5.00;3.75;;;22.10;99.90;;;;;;5043714;28;20455;-53
2021/08/22 09:13:39;;;;;;;5.50;4.10;;;22.20;99.90;;;;;;5003162;28;20644;-53
2021/08/22 09:16:57;;;;;;;5.40;3.60;;;22.00;99.90;;;;;;5041764;28;20444;-56
2021/08/22 09:20:01;;;;;;;6.83;3.70;;;21.70;99.90;;;;;;5039109;28;20517;-55
2021/08/22 09:23:20;;;;;;;5.10;3.63;;;21.30;99.90;;;;;;5047224;28;20517;-55
2021/08/22 09:26:24;;;;;;;4.27;3.90;;;21.40;99.90;;;;;;5048524;28;20957;-54
2021/08/22 09:29:48;;;;;;;4.17;3.73;;;21.00;99.90;;;;;;5050808;28;20513;-52
2021/08/22 09:32:52;;;;;;;4.77;3.80;;;20.80;99.90;;;;;;5008935;28;20442;-52
2021/08/22 09:35:51;;;;;;;3.87;3.50;;;20.50;99.90;;;;;;5007562;28;20487;-52
2021/08/22 09:38:51;;;;;;;5.40;4.77;;;20.70;99.90;;;;;;5048258;28;20448;-53
2021/08/22 09:41:59;;;;;;;7.23;4.43;;;20.70;99.90;;;;;;5030221;28;20444;-53
2021/08/22 09:45:26;;;;;;;6.30;4.90;;;20.70;99.90;;;;;;5032056;28;20476;-54
2021/08/22 09:48:38;;;;;;;5.60;4.33;;;20.90;99.90;;;;;;5031842;28;20444;-53
2021/08/22 09:52:08;;;;;;;8.93;6.40;;;20.80;99.90;;;;;;5008729;28;20923;-53
2021/08/22 09:55:13;;;;;;;8.93;6.70;;;20.70;99.90;;;;;;4989842;28;20474;-54
2021/08/22 09:58:26;;;;;;;6.87;4.90;;;20.50;99.90;;;;;;4936114;28;20465;-53
2021/08/22 10:01:27;;;;;;;5.57;3.77;;;20.60;99.90;;;;;;4999044;28;20803;-53
2021/08/22 10:04:37;;;;;;;4.83;4.30;;;20.60;99.90;;;;;;5031465;28;20526;-53
2021/08/22 10:07:29;;;;;;;4.37;3.90;;;20.70;99.90;;;;;;5031476;28;20988;-53
2021/08/22 10:10:00;;;;;;;4.17;3.77;;;20.70;99.90;;;;;;5042957;28;20521;-53
2021/08/22 10:12:30;;;;;;;5.73;4.20;;;20.60;99.90;;;;;;5051155;28;20879;-54
2021/08/22 10:14:58;;;;;;;4.77;4.27;;;20.60;99.90;;;;;;5051422;28;20470;-54
2021/08/22 10:17:29;;;;;;;4.17;3.77;;;20.90;99.90;;;;;;5051442;28;20467;-54
2021/08/22 10:19:56;;;;;;;4.20;3.80;;;21.20;99.90;;;;;;5051194;28;20509;-54
2021/08/22 10:22:33;;;;;;;7.70;6.70;;;21.50;99.90;;;;;;5051833;28;20852;-55
2021/08/22 10:25:02;;;;;;;7.40;6.60;;;21.90;99.90;;;;;;5055286;28;20893;-54
2021/08/22 10:27:49;;;;;;;5.80;5.20;;;22.30;99.90;;;;;;5055262;28;20461;-56
2021/08/22 10:30:22;;;;;;;4.80;4.27;;;22.60;99.90;;;;;;5055046;28;20483;-54
2021/08/22 10:33:08;;;;;;;4.50;4.10;;;22.80;99.90;;;;;;5055295;28;20912;-53
2021/08/22 10:35:36;;;;;;;4.30;3.80;;;22.60;99.90;;;;;;5055279;28;20443;-54
2021/08/22 10:38:35;;;;;;;5.50;4.43;;;22.40;99.90;;;;;;5055184;28;20496;-53
2021/08/22 10:41:02;;;;;;;5.40;4.00;;;22.20;99.90;;;;;;5054689;28;20802;-54
2021/08/22 10:43:38;;;;;;;4.30;3.70;;;22.60;99.90;;;;;;5054692;28;20977;-53
2021/08/22 10:46:07;;;;;;;4.40;3.87;;;23.00;99.90;;;;;;5055074;28;20443;-53
2021/08/22 10:48:47;;;;;;;5.30;4.27;;;23.20;99.90;;;;;;5054905;28;20443;-55
2021/08/22 10:51:14;;;;;;;5.07;4.17;;;23.60;99.90;;;;;;5035197;28;20484;-55
2021/08/22 10:53:43;;;;;;;5.33;4.43;;;23.50;99.90;;;;;;5034703;28;20538;-53
2021/08/22 10:56:38;;;;;;;4.97;4.47;;;23.30;99.90;;;;;;5034786;28;20512;-54
2021/08/22 10:59:08;;;;;;;5.17;4.37;;;23.50;99.90;;;;;;5038107;28;20968;-53
2021/08/22 11:01:38;;;;;;;5.73;4.50;;;23.70;99.90;;;;;;5054724;28;20444;-53
2021/08/22 11:04:07;;;;;;;4.27;3.83;;;24.00;99.90;;;;;;5054675;28;20463;-53
2021/08/22 11:06:35;;;;;;;5.47;4.47;;;24.10;99.90;;;;;;5054516;28;20456;-54
2021/08/22 11:09:03;;;;;;;6.20;5.00;;;24.40;99.90;;;;;;5054110;28;20456;-53
2021/08/22 11:11:30;;;;;;;5.93;4.40;;;24.70;99.90;;;;;;5054382;28;20475;-55
2021/08/22 11:13:58;;;;;;;5.50;4.90;;;24.20;99.90;;;;;;5053974;28;20472;-55
2021/08/22 11:16:41;;;;;;;6.10;4.93;;;24.10;99.90;;;;;;5054613;28;20455;-53
2021/08/22 11:19:08;;;;;;;5.00;4.40;;;24.10;99.90;;;;;;5054085;28;20447;-53
2021/08/22 11:21:36;;;;;;;5.40;4.60;;;24.00;99.90;;;;;;5054301;28;20501;-54
2021/08/22 11:24:03;;;;;;;5.27;4.77;;;24.20;99.90;;;;;;5053866;28;20510;-54
2021/08/22 11:26:30;;;;;;;5.03;4.37;;;24.30;99.90;;;;;;5053683;28;20847;-53
2021/08/22 11:28:58;;;;;;;5.30;4.80;;;24.50;99.90;;;;;;5054003;28;20505;-54
2021/08/22 11:31:30;;;;;;;5.43;4.93;;;24.70;99.90;;;;;;5054100;28;20988;-53
2021/08/22 11:34:10;;;;;;;7.57;4.80;;;24.70;99.90;;;;;;5052844;28;20981;-54
2021/08/22 11:36:37;;;;;;;4.63;4.23;;;24.80;99.90;;;;;;5054028;28;20870;-53
2021/08/22 11:39:08;;;;;;;5.63;4.57;;;24.70;99.90;;;;;;5053870;28;20525;-53
2021/08/22 11:41:35;;;;;;;5.13;4.53;;;24.60;99.90;;;;;;5053874;28;20509;-54
2021/08/22 11:44:02;;;;;;;6.00;4.77;;;24.30;99.90;;;;;;5053734;28;20525;-54
2021/08/22 11:46:30;;;;;;;4.80;4.40;;;24.40;99.90;;;;;;5053749;28;20455;-55
2021/08/22 11:48:59;;;;;;;6.00;4.60;;;24.20;99.90;;;;;;5053521;28;20513;-54
2021/08/22 11:51:26;;;;;;;5.50;4.50;;;24.20;99.90;;;;;;5053664;28;20475;-55
2021/08/22 11:53:53;;;;;;;4.93;4.43;;;24.40;99.90;;;;;;5053339;28;20529;-55
2021/08/22 11:56:22;;;;;;;7.93;4.47;;;24.50;99.90;;;;;;5053621;28;20946;-54
2021/08/22 11:58:49;;;;;;;6.03;4.67;;;24.70;99.90;;;;;;5053622;28;20444;-55
2021/08/22 12:01:20;;;;;;;4.90;4.40;;;24.90;99.90;;;;;;5053100;28;20506;-55
2021/08/22 12:04:06;;;;;;;5.27;4.77;;;25.10;99.90;;;;;;5053251;28;20499;-54
2021/08/22 12:06:33;;;;;;;5.20;4.37;;;25.30;99.90;;;;;;5053678;28;20443;-54
2021/08/22 12:09:00;;;;;;;5.20;4.67;;;25.30;99.90;;;;;;5053474;28;20444;-54
2021/08/22 12:11:32;;;;;;;6.60;5.13;;;24.80;99.90;;;;;;5053236;28;20538;-54
2021/08/22 12:14:15;;;;;;;4.97;4.50;;;24.70;99.90;;;;;;5053160;28;20472;-53
2021/08/22 12:16:55;;;;;;;5.30;4.37;;;24.70;99.90;;;;;;5053314;28;20451;-55
2021/08/22 12:19:25;;;;;;;5.70;4.40;;;24.90;99.90;;;;;;5053476;28;20643;-54
2021/08/22 12:21:54;;;;;;;4.97;4.17;;;24.70;99.90;;;;;;5052830;28;20451;-54
2021/08/22 12:24:23;;;;;;;5.50;4.40;;;24.30;99.90;;;;;;5053005;28;20529;-54
2021/08/22 12:26:51;;;;;;;5.63;4.50;;;24.20;99.90;;;;;;5053044;28;20509;-54
2021/08/22 12:29:26;;;;;;;7.17;4.63;;;24.20;99.90;;;;;;5053418;28;20463;-54
2021/08/22 12:31:55;;;;;;;6.00;4.90;;;24.20;99.90;;;;;;5052497;28;20471;-55
2021/08/22 12:34:24;;;;;;;5.80;4.80;;;24.10;99.90;;;;;;5052908;28;20468;-53
2021/08/22 12:36:51;;;;;;;5.33;4.80;;;23.60;99.90;;;;;;5053000;28;20550;-54
2021/08/22 12:39:19;;;;;;;5.27;4.63;;;23.40;99.90;;;;;;5052864;28;20466;-53
2021/08/22 12:41:47;;;;;;;5.10;4.60;;;23.40;99.90;;;;;;5052662;28;20443;-55
2021/08/22 12:44:16;;;;;;;7.00;4.90;;;23.40;99.90;;;;;;5052580;28;20472;-53
2021/08/22 12:46:46;;;;;;;7.80;5.60;;;23.10;99.90;;;;;;5052589;28;20484;-53
2021/08/22 12:49:13;;;;;;;5.00;4.50;;;22.90;99.90;;;;;;5052624;28;20482;-55
2021/08/22 12:51:48;;;;;;;5.70;5.13;;;22.70;99.90;;;;;;5052235;28;20472;-55
2021/08/22 12:54:16;;;;;;;5.23;4.60;;;22.60;99.90;;;;;;5075570;22;20993;-59
2021/08/22 12:56:43;;;;;;;5.40;4.77;;;22.50;99.90;;;;;;5052664;28;20497;-59
2021/08/22 12:59:10;;;;;;;6.63;4.77;;;22.50;99.90;;;;;;5052516;28;20447;-60
2021/08/22 13:01:37;;;;;;;6.60;5.03;;;22.50;99.90;;;;;;5052147;28;20443;-60
2021/08/22 13:04:05;;;;;;;6.47;5.43;;;22.30;99.90;;;;;;5051775;28;20463;-59
2021/08/22 13:06:32;;;;;;;7.17;5.10;;;21.80;99.90;;;;;;5032467;28;21008;-60
2021/08/22 13:09:00;;;;;;;5.28;4.50;;;21.20;99.90;;;;;;5041669;28;20941;-60
2021/08/22 13:11:27;;;;;;;5.07;4.57;;;21.10;99.90;;;;;;5050980;28;20221;-59
2021/08/22 13:13:55;;;;;;;5.43;4.10;;;20.90;99.90;;;;;;5050652;28;20467;-60
2021/08/22 13:16:23;;;;;;;6.13;4.20;;;20.90;99.90;;;;;;5051441;28;20510;-60
2021/08/22 13:18:50;;;;;;;6.70;4.23;;;20.80;99.90;;;;;;5051472;28;20969;-60
2021/08/22 13:21:17;;;;;;;4.73;4.13;;;20.90;99.90;;;;;;5051281;28;20448;-59
2021/08/22 13:23:44;;;;;;;5.50;3.70;;;20.70;99.90;;;;;;5049278;28;20521;-60
2021/08/22 13:26:13;;;;;;;5.03;4.10;;;20.80;99.90;;;;;;5041077;28;20542;-60
2021/08/22 13:28:41;;;;;;;4.43;3.50;;;21.00;99.90;;;;;;5047855;28;20448;-59
2021/08/22 13:31:09;;;;;;;5.53;4.10;;;21.10;99.90;;;;;;5048529;28;21060;-60
2021/08/22 13:33:36;;;;;;;5.80;4.03;;;21.30;99.90;;;;;;5050256;28;20456;-60
2021/08/22 13:36:04;;;;;;;4.30;3.90;;;21.40;99.90;;;;;;5045468;28;20805;-59
2021/08/22 13:38:31;;;;;;;5.27;4.70;;;21.40;99.90;;;;;;5049479;28;20447;-60
2021/08/22 13:40:58;;;;;;;5.60;4.87;;;21.40;99.90;;;;;;5051127;28;20999;-60
2021/08/22 13:43:27;;;;;;;6.87;4.80;;;21.20;99.90;;;;;;5041409;28;20464;-60
2021/08/22 13:45:56;;;;;;;5.83;4.10;;;21.40;99.90;;;;;;5037886;28;20885;-60
2021/08/22 13:48:23;;;;;;;6.30;4.90;;;21.40;99.90;;;;;;5047593;28;20457;-59
2021/08/22 13:50:50;;;;;;;4.93;4.13;;;21.40;99.90;;;;;;5039057;28;20525;-59
2021/08/22 13:53:17;;;;;;;5.00;3.80;;;21.40;99.90;;;;;;5051339;28;21070;-60